Swansea, Massachusetts
Current Conditions -  °F | °C
As of 3:53 PM on Saturday 25 Oct 2014 (Local Time) from KEWB Reporting Station
Clear Clear  
Wind Chill: 65°   Ceiling: Unl
Heat Index: 65°   Visibility: 10mi
Dew Point: 40°   Wind: 12mph
Humidity: 40%   Direction: 260°W
Pressure: 29.62"   Gusts: NA
Location:  41.75°N, 71.19°W
Report Text: KEWB 251953Z 26010KT 10SM CLR 18/04 A2962 RMK AO2 SLP029 T01830044
Loading
Personal Weather Stations






























Interactive Weather Map
Tropical Storm Tracking
New forecast layout! Learn more

10-Day Weather Forecast

Advertisements
Track Severe Weather on mobile